Time;durP1;ratioP1;P1;durP2;ratioP2;P2;SDS_P1;SDS_P2;PMS_P1;PMS_P2;Temp;Humidity;BMP_temperature;BMP_pressure;BME280_temperature;BME280_humidity;BME280_pressure;Samples;Min_cycle;Max_cycle;Signal;HPM_P1;HPM_P2
2023/10/11 00:00:40;;;;;;;10.95;4.95;;;18.10;99.90;;;18.22;59.58;100471.63;5103477;28;20134;-83
2023/10/11 00:03:17;;;;;;;9.88;4.85;;;18.10;99.90;;;18.21;59.07;100480.81;5118049;28;20044;-83
2023/10/11 00:05:47;;;;;;;15.65;5.10;;;18.10;99.90;;;18.21;59.86;100473.50;5109290;28;20039;-83
2023/10/11 00:08:17;;;;;;;12.48;4.95;;;18.10;99.90;;;18.19;59.74;100480.22;5120115;28;20127;-83
2023/10/11 00:10:53;;;;;;;12.45;5.25;;;18.00;99.90;;;18.17;60.02;100474.28;5121246;28;20048;-83
2023/10/11 00:13:25;;;;;;;11.52;5.07;;;18.00;99.90;;;18.11;59.79;100480.75;5119866;28;20047;-83
2023/10/11 00:15:54;;;;;;;12.20;4.47;;;18.00;99.90;;;18.13;59.66;100471.28;5119497;27;20444;-83
2023/10/11 00:18:26;;;;;;;14.23;5.53;;;18.00;99.90;;;18.16;59.79;100478.06;5120479;28;20040;-83
2023/10/11 00:20:57;;;;;;;10.75;4.82;;;18.00;99.90;;;18.18;59.82;100475.91;5098249;28;20092;-83
2023/10/11 00:23:27;;;;;;;15.82;5.75;;;18.00;99.90;;;18.16;60.07;100464.56;5120647;28;20571;-83
2023/10/11 00:25:58;;;;;;;14.00;5.32;;;18.00;99.90;;;18.10;60.18;100476.41;5088934;28;20078;-83
2023/10/11 00:28:31;;;;;;;11.30;4.78;;;18.00;99.90;;;18.09;60.28;100467.50;5120176;28;20036;-83
2023/10/11 00:31:01;;;;;;;13.50;5.32;;;18.00;99.90;;;18.08;60.32;100471.25;5116653;28;20040;-83
2023/10/11 00:33:31;;;;;;;12.13;5.00;;;18.00;99.90;;;18.10;60.36;100471.81;5117010;28;20560;-83
2023/10/11 00:36:01;;;;;;;12.63;5.40;;;18.00;99.90;;;18.11;60.35;100465.34;5117551;28;20413;-83
2023/10/11 00:38:29;;;;;;;12.02;5.15;;;18.00;99.90;;;18.09;60.21;100472.06;5108132;28;20071;-83
2023/10/11 00:41:07;;;;;;;12.05;5.07;;;18.00;99.90;;;18.09;60.07;100466.69;5118162;28;20040;-83
2023/10/11 00:43:38;;;;;;;12.38;4.93;;;17.90;99.90;;;18.01;60.13;100460.72;5118654;28;20065;-83
2023/10/11 00:46:09;;;;;;;17.95;5.60;;;18.00;99.90;;;18.02;60.16;100462.34;5094138;28;20101;-83
2023/10/11 00:48:46;;;;;;;17.48;5.63;;;17.90;99.90;;;18.04;59.88;100469.34;5117632;28;20039;-83
2023/10/11 00:51:14;;;;;;;12.15;5.07;;;18.00;99.90;;;18.05;60.29;100463.69;5134714;27;20095;-83
2023/10/11 00:53:41;;;;;;;12.52;5.18;;;17.90;99.90;;;18.09;60.15;100461.28;5083030;28;20039;-83
2023/10/11 00:56:09;;;;;;;12.82;5.32;;;17.90;99.90;;;18.06;60.32;100461.81;5111922;28;20506;-83
2023/10/11 00:58:39;;;;;;;15.52;5.53;;;17.90;99.90;;;18.04;60.19;100453.97;5120410;28;20052;-83
2023/10/11 01:01:08;;;;;;;11.40;4.63;;;17.90;99.90;;;18.02;60.12;100456.94;5092390;28;20503;-83
2023/10/11 01:03:37;;;;;;;15.43;5.15;;;17.90;99.90;;;18.04;60.52;100458.56;5118453;27;20475;-83
2023/10/11 01:06:05;;;;;;;16.50;5.50;;;17.90;99.90;;;18.03;60.61;100452.34;5118254;28;20044;-83
2023/10/11 01:08:38;;;;;;;12.52;5.53;;;17.90;99.90;;;18.06;60.40;100451.03;5098902;28;20497;-83
2023/10/11 01:11:11;;;;;;;12.55;5.07;;;17.90;99.90;;;18.00;60.56;100448.25;5118539;28;20054;-83
2023/10/11 01:13:40;;;;;;;11.40;5.18;;;17.90;99.90;;;18.02;60.71;100445.31;5118655;28;20051;-83
2023/10/11 01:16:14;;;;;;;13.45;5.47;;;17.90;99.90;;;17.98;60.57;100439.63;5117282;28;20065;-83
2023/10/11 01:18:42;;;;;;;14.25;5.18;;;17.80;99.90;;;17.98;60.76;100439.63;5118977;27;20032;-83
2023/10/11 01:21:13;;;;;;;10.25;5.07;;;17.80;99.90;;;17.98;60.87;100436.94;5114736;27;20490;-83
2023/10/11 01:23:41;;;;;;;13.80;5.53;;;17.80;99.90;;;17.92;60.98;100440.69;5118877;28;20490;-83
2023/10/11 01:26:10;;;;;;;11.15;5.32;;;17.80;99.90;;;17.92;61.04;100432.59;5118119;27;20046;-83
2023/10/11 01:28:40;;;;;;;18.95;5.60;;;17.80;99.90;;;17.95;60.97;100433.94;5103321;28;20040;-83
2023/10/11 01:31:10;;;;;;;14.23;5.45;;;17.80;99.90;;;17.93;61.19;100428.81;5112807;28;20097;-83
2023/10/11 01:33:41;;;;;;;10.98;4.95;;;17.80;99.90;;;17.88;61.40;100425.28;5134808;27;20494;-83
2023/10/11 01:36:14;;;;;;;17.67;6.20;;;17.80;99.90;;;17.90;61.21;100423.13;5110744;28;20498;-83
2023/10/11 01:38:47;;;;;;;13.07;5.32;;;17.80;99.90;;;17.92;61.27;100429.09;5118776;28;20060;-83
2023/10/11 01:41:16;;;;;;;13.85;5.35;;;17.80;99.90;;;17.92;61.52;100424.50;5099439;28;20036;-83
2023/10/11 01:43:46;;;;;;;11.15;5.22;;;17.80;99.90;;;17.91;61.65;100422.88;5096006;28;20075;-83
2023/10/11 01:46:16;;;;;;;14.82;5.75;;;17.70;99.90;;;17.86;61.27;100422.84;5133855;27;20095;-83
2023/10/11 01:48:46;;;;;;;16.67;5.45;;;17.70;99.90;;;17.85;61.38;100418.50;5118950;28;20114;-83
2023/10/11 01:51:23;;;;;;;16.85;5.53;;;17.70;99.90;;;17.83;61.39;100420.66;5126385;27;20040;-83
2023/10/11 01:53:50;;;;;;;14.00;5.45;;;17.70;99.90;;;17.85;61.71;100421.19;5099657;28;20519;-83
2023/10/11 01:56:18;;;;;;;13.05;5.70;;;17.70;99.90;;;17.88;62.24;100414.47;5094812;28;20052;-83
2023/10/11 01:58:45;;;;;;;17.58;5.45;;;17.70;99.90;;;17.87;62.05;100420.94;5100435;28;20502;-83
2023/10/11 02:01:26;;;;;;;14.50;5.63;;;17.70;99.90;;;17.85;61.70;100415.00;5118344;28;20047;-83
2023/10/11 02:03:59;;;;;;;12.88;5.40;;;17.70;99.90;;;17.85;62.17;100412.28;5116860;28;20039;-83
2023/10/11 02:06:31;;;;;;;11.52;5.50;;;17.70;99.90;;;17.86;61.90;100409.34;5097541;28;20048;-83
2023/10/11 02:09:02;;;;;;;12.45;5.35;;;17.70;99.90;;;17.81;62.15;100409.28;5116204;28;20125;-83
2023/10/11 02:11:30;;;;;;;17.15;6.15;;;17.70;99.90;;;17.80;62.21;100404.16;5116178;28;20124;-83
2023/10/11 02:13:59;;;;;;;11.38;4.88;;;17.70;99.90;;;17.82;62.12;100402.84;5117438;28;20044;-83
2023/10/11 02:16:28;;;;;;;12.00;5.25;;;17.70;99.90;;;17.80;61.78;100396.88;5105881;28;20048;-83
2023/10/11 02:18:58;;;;;;;12.80;5.60;;;17.70;99.90;;;17.82;62.02;100400.16;5118961;28;20522;-83
2023/10/11 02:21:29;;;;;;;11.90;4.95;;;17.70;99.90;;;17.79;62.16;100392.56;5100274;28;20459;-83
2023/10/11 02:23:58;;;;;;;13.95;5.55;;;17.60;99.90;;;17.79;62.18;100400.66;5095997;28;20500;-83
2023/10/11 02:26:28;;;;;;;15.82;6.00;;;17.60;99.90;;;17.75;61.87;100408.44;5116336;28;20128;-83
2023/10/11 02:29:00;;;;;;;13.03;5.67;;;17.60;99.90;;;17.74;62.50;100395.22;5117880;28;20043;-83
2023/10/11 02:31:33;;;;;;;;;;;17.60;99.90;;;17.67;62.60;100397.31;5111117;28;20050;-83
2023/10/11 02:34:12;;;;;;;15.13;5.72;;;17.60;99.90;;;17.67;62.19;100395.44;5117713;27;19924;-83
2023/10/11 02:36:43;;;;;;;14.63;5.30;;;17.60;99.90;;;17.72;62.55;100392.78;5113520;28;20062;-83
2023/10/11 02:39:17;;;;;;;15.55;6.05;;;17.60;99.90;;;17.70;62.39;100394.09;5114988;28;20123;-83
2023/10/11 02:41:47;;;;;;;12.27;5.57;;;17.60;99.90;;;17.70;62.41;100394.09;5114896;28;20048;-83
2023/10/11 02:44:15;;;;;;;14.75;6.20;;;17.50;99.90;;;17.64;62.64;100389.75;5119161;28;20051;-83
2023/10/11 02:46:44;;;;;;;16.67;6.38;;;17.50;99.90;;;17.63;62.62;100385.44;5104795;28;20036;-83
2023/10/11 02:49:21;;;;;;;17.92;5.82;;;17.50;99.90;;;17.64;62.85;100400.53;5106221;28;20040;-83
2023/10/11 02:51:56;;;;;;;13.52;5.50;;;17.50;99.90;;;17.61;62.72;100379.47;5101071;28;20054;-83
2023/10/11 02:54:26;;;;;;;15.77;5.93;;;17.50;99.90;;;17.59;62.51;100377.03;5115941;28;20078;-83
2023/10/11 02:56:57;;;;;;;16.97;6.13;;;17.50;99.90;;;17.61;62.65;100379.47;5101176;28;20052;-83
2023/10/11 02:59:25;;;;;;;20.27;5.90;;;17.50;99.90;;;17.56;62.68;100387.53;5132758;27;20315;-83
2023/10/11 03:02:00;;;;;;;15.15;5.80;;;17.50;99.90;;;17.56;62.92;100382.13;5099206;28;20039;-83
2023/10/11 03:04:39;;;;;;;16.23;6.47;;;17.50;99.90;;;17.59;62.66;100387.00;5118686;28;20047;-83
2023/10/11 03:07:13;;;;;;;14.55;6.13;;;17.50;99.90;;;17.56;62.83;100384.81;5118872;28;20043;-83
2023/10/11 03:09:41;;;;;;;13.82;5.90;;;17.40;99.90;;;17.54;62.63;100381.59;5117295;28;20044;-83
2023/10/11 03:12:18;;;;;;;13.18;5.85;;;17.40;99.90;;;17.53;62.35;100382.66;5114671;28;20051;-83
2023/10/11 03:14:46;;;;;;;14.20;5.75;;;17.40;99.90;;;17.54;62.40;100385.09;5111093;28;20050;-83
2023/10/11 03:17:15;;;;;;;19.67;6.63;;;17.40;99.90;;;17.55;62.14;100385.91;5084221;28;20048;-83
2023/10/11 03:19:45;;;;;;;14.45;6.10;;;17.40;99.90;;;17.52;62.21;100379.16;5098698;28;20089;-83
2023/10/11 03:22:19;;;;;;;17.10;5.07;;;17.40;99.90;;;17.52;62.38;100379.16;5116446;28;20051;-83
2023/10/11 03:24:53;;;;;;;15.45;6.43;;;17.40;99.90;;;17.53;62.09;100374.56;5089819;28;20048;-83
2023/10/11 03:27:23;;;;;;;21.52;5.55;;;17.40;99.90;;;17.53;61.83;100370.00;5098159;28;20047;-83
2023/10/11 03:29:53;;;;;;;12.68;5.82;;;17.40;99.90;;;17.47;62.30;100379.09;5116888;28;20691;-83
2023/10/11 03:32:24;;;;;;;12.45;5.70;;;17.40;99.90;;;17.48;62.21;100376.16;5116569;28;20566;-83
2023/10/11 03:34:55;;;;;;;16.85;5.53;;;17.40;99.90;;;17.46;61.90;100375.59;5107508;28;20478;-83
2023/10/11 03:37:27;;;;;;;;;;;17.40;99.90;;;17.45;61.83;100383.94;5115115;28;20067;-83
2023/10/11 03:39:56;;;;;;;15.45;6.18;;;17.40;99.90;;;17.40;62.27;100382.03;5132995;28;19919;-83
2023/10/11 03:42:50;;;;;;;15.90;5.68;;;17.30;99.90;;;17.48;62.28;100375.34;5126314;28;20051;-83
2023/10/11 03:45:20;;;;;;;13.02;5.60;;;17.30;99.90;;;17.49;62.47;100382.38;5113303;28;20044;-83
2023/10/11 03:47:48;;;;;;;13.70;5.40;;;17.30;99.90;;;17.48;61.87;100364.56;5117616;28;20048;-83
2023/10/11 03:50:24;;;;;;;16.60;5.53;;;17.30;99.90;;;17.40;62.04;100368.53;5118361;28;20043;-83
2023/10/11 03:53:06;;;;;;;13.55;6.05;;;17.30;99.90;;;17.37;61.79;100360.16;5118541;28;20040;-83
2023/10/11 03:55:34;;;;;;;18.67;5.82;;;17.30;99.90;;;17.30;62.00;100371.16;5122964;28;20561;-83
2023/10/11 03:58:01;;;;;;;13.90;5.70;;;17.30;99.90;;;17.39;62.28;100372.31;5114437;28;20399;-83
2023/10/11 04:00:46;;;;;;;14.00;6.20;;;17.30;99.90;;;17.40;62.05;100367.75;5131789;28;20131;-84
2023/10/11 04:03:17;;;;;;;12.77;5.35;;;17.30;99.90;;;17.46;62.05;100362.09;5113045;28;20036;-83
2023/10/11 04:05:47;;;;;;;16.88;5.90;;;17.30;99.90;;;17.47;61.39;100369.16;5130165;27;20535;-82
2023/10/11 04:08:24;;;;;;;13.70;5.65;;;17.30;99.90;;;17.42;61.78;100366.41;5118570;28;20054;-82
2023/10/11 04:10:53;;;;;;;13.75;5.80;;;17.30;99.90;;;17.45;61.45;100363.19;5116296;28;20048;-82
2023/10/11 04:13:26;;;;;;;14.50;5.57;;;17.30;99.90;;;17.45;61.77;100356.97;5113768;28;20249;-82
2023/10/11 04:15:58;;;;;;;11.68;5.40;;;17.30;99.90;;;17.43;60.98;100356.44;5117082;28;20456;-82
2023/10/11 04:18:37;;;;;;;11.77;5.05;;;17.20;99.90;;;17.37;61.42;100357.47;5112264;28;20096;-82
2023/10/11 04:23:55;;;;;;;14.23;5.93;;;17.20;99.90;;;17.40;61.59;100359.66;5102445;27;20136;-83
2023/10/11 04:26:26;;;;;;;17.27;5.82;;;17.20;99.90;;;17.40;61.71;100351.56;5123216;28;20119;-84
2023/10/11 04:28:53;;;;;;;13.27;5.93;;;17.20;99.90;;;17.40;61.23;100351.56;5119899;28;20110;-84
2023/10/11 04:31:31;;;;;;;13.02;5.57;;;17.20;99.90;;;17.33;61.19;100351.78;5105529;28;20526;-84
2023/10/11 04:34:01;;;;;;;11.73;5.50;;;17.20;99.90;;;17.38;61.66;100359.91;5125059;28;20054;-83
2023/10/11 04:36:29;;;;;;;14.35;5.65;;;17.20;99.90;;;17.35;61.13;100351.53;5118258;28;20552;-85
2023/10/11 04:39:03;;;;;;;10.57;5.50;;;17.20;99.90;;;17.33;61.47;100359.06;5079832;28;20122;-84
2023/10/11 04:41:38;;;;;;;13.73;5.57;;;17.10;99.90;;;17.27;61.19;100360.09;5116932;28;20054;-84
2023/10/11 04:44:13;;;;;;;15.95;5.93;;;17.10;99.90;;;17.28;61.00;100359.84;5115649;28;20511;-85
2023/10/11 04:46:44;;;;;;;12.18;5.82;;;17.10;99.90;;;17.23;60.68;100357.91;5099758;28;20153;-85
2023/10/11 04:49:19;;;;;;;16.35;5.78;;;17.10;99.90;;;17.32;61.20;100352.03;5125562;27;20478;-84
2023/10/11 04:51:51;;;;;;;10.05;5.13;;;17.20;99.90;;;17.32;61.21;100358.22;5116238;28;20063;-84
2023/10/11 04:54:20;;;;;;;17.63;6.28;;;17.20;99.90;;;17.36;61.29;100364.75;5117121;28;20130;-84
2023/10/11 04:56:55;;;;;;;12.30;5.03;;;17.10;99.90;;;17.36;60.50;100367.44;5115882;28;20406;-84
2023/10/11 04:59:36;;;;;;;13.35;5.35;;;17.20;99.90;;;17.28;60.11;100362.53;5082885;28;20046;-84
2023/10/11 05:02:15;;;;;;;13.98;5.22;;;17.10;99.90;;;17.27;60.90;100368.97;5129397;27;20529;-85
2023/10/11 05:04:44;;;;;;;13.60;5.32;;;17.10;99.90;;;17.29;60.99;100366.84;5113946;27;20044;-85
2023/10/11 05:07:13;;;;;;;13.98;5.05;;;17.10;99.90;;;17.25;60.43;100368.44;5097143;28;20495;-84
2023/10/11 05:09:43;;;;;;;14.13;5.40;;;17.10;99.90;;;17.26;60.22;100370.06;5108818;28;20047;-84
2023/10/11 05:12:19;;;;;;;13.25;5.50;;;17.10;99.90;;;17.26;60.30;100364.66;5114200;28;20135;-85
2023/10/11 05:15:07;;;;;;;11.90;5.00;;;17.10;99.90;;;17.25;60.49;100365.75;5116141;28;20062;-85
2023/10/11 05:17:40;;;;;;;14.07;5.40;;;17.10;99.90;;;17.30;60.77;100379.25;5118269;27;20043;-84
2023/10/11 05:20:44;;;;;;;11.95;4.50;;;17.10;99.90;;;17.33;60.76;100373.34;5115563;28;20060;-84
2023/10/11 05:23:13;;;;;;;15.68;6.32;;;17.10;99.90;;;17.30;60.71;100368.47;5105056;28;20043;-84
2023/10/11 05:25:59;;;;;;;12.80;5.50;;;17.10;99.90;;;17.32;60.59;100366.31;5103872;28;20063;-84
2023/10/11 05:28:27;;;;;;;12.95;5.45;;;17.00;99.90;;;17.22;60.03;100364.34;5115639;28;20042;-84
2023/10/11 05:31:19;;;;;;;16.33;5.97;;;17.10;99.90;;;17.25;60.29;100360.34;5113931;28;20113;-85
2023/10/11 05:33:59;;;;;;;14.25;5.45;;;17.10;99.90;;;17.22;60.21;100358.97;5111642;28;20522;-84
2023/10/11 05:50:50;;;;;;;14.73;5.45;;;17.10;99.90;;;17.20;60.28;100349.53;5092838;28;20062;-84
2023/10/11 05:50:55;;;;;;;18.75;5.20;;;17.00;99.90;;;17.15;60.34;100366.47;5101251;28;20563;-85
2023/10/11 05:53:25;;;;;;;12.05;5.07;;;17.00;99.90;;;17.14;60.58;100364.03;5112187;28;20047;-84
2023/10/11 05:55:57;;;;;;;14.60;5.32;;;17.00;99.90;;;17.14;60.20;100359.47;5097615;28;20089;-84
2023/10/11 05:58:27;;;;;;;18.98;5.53;;;17.00;99.90;;;17.15;60.08;100354.88;5096208;28;20048;-84
2023/10/11 06:00:55;;;;;;;12.70;5.07;;;17.00;99.90;;;17.17;59.95;100372.41;5108495;28;20044;-84
2023/10/11 06:03:28;;;;;;;14.93;5.50;;;17.00;99.90;;;17.09;59.57;100367.50;5114271;28;20044;-85
2023/10/11 06:05:56;;;;;;;12.48;5.65;;;17.00;99.90;;;17.05;60.02;100365.59;5101271;28;20039;-83
2023/10/11 06:08:24;;;;;;;12.95;4.88;;;17.00;99.90;;;17.07;59.95;100356.16;5081388;28;20036;-82
2023/10/11 06:10:56;;;;;;;18.27;5.25;;;17.00;99.90;;;17.12;59.45;100342.72;5111941;28;20032;-83
2023/10/11 06:13:23;;;;;;;11.48;5.20;;;17.00;99.90;;;17.12;59.53;100341.91;5112115;28;20048;-83
2023/10/11 06:15:59;;;;;;;14.85;5.10;;;17.00;99.90;;;17.14;59.23;100342.47;5095055;28;20056;-83
2023/10/11 06:18:39;;;;;;;11.77;5.10;;;17.10;99.90;;;17.14;59.53;100331.69;5096745;28;20403;-82
2023/10/11 06:21:18;;;;;;;19.70;5.82;;;17.10;99.90;;;17.17;59.49;100331.16;5114291;28;20089;-83
2023/10/11 06:23:48;;;;;;;17.85;5.30;;;17.10;99.90;;;17.10;59.53;100334.09;5117699;28;20047;-82
2023/10/11 06:29:07;;;;;;;18.20;5.40;;;17.10;99.90;;;17.13;59.27;100332.75;5101626;28;20521;-82
2023/10/11 06:31:40;;;;;;;21.25;5.40;;;17.10;99.90;;;17.12;59.55;100336.53;5116251;28;20050;-82
2023/10/11 06:34:17;;;;;;;14.98;5.13;;;17.20;99.90;;;17.11;59.73;100349.19;5097795;28;20171;-83
2023/10/11 06:36:48;;;;;;;11.48;4.88;;;17.20;99.90;;;17.20;59.79;100361.13;5096404;28;20048;-83
2023/10/11 06:42:23;;;;;;;16.67;5.13;;;17.20;99.90;;;17.24;59.35;100370.31;5103689;28;20043;-85
2023/10/11 06:44:53;;;;;;;15.18;5.25;;;17.20;99.90;;;17.29;59.89;100360.66;5110283;28;20051;-85
2023/10/11 06:47:23;;;;;;;12.80;4.70;;;17.20;99.90;;;17.34;59.99;100372.28;5111126;28;20507;-85
2023/10/11 06:49:54;;;;;;;13.00;5.30;;;17.20;99.90;;;17.37;60.14;100377.16;5103828;28;20044;-85
2023/10/11 06:52:25;;;;;;;;;;;17.30;99.90;;;17.35;59.97;100371.22;5101551;28;20453;-85
2023/10/11 06:55:14;;;;;;;11.82;4.53;;;17.30;99.90;;;17.34;59.71;100377.69;5113796;28;19919;-85
2023/10/11 06:57:45;;;;;;;16.85;4.78;;;17.30;99.90;;;17.38;59.34;100370.69;5106094;28;20044;-85
2023/10/11 07:00:23;;;;;;;12.98;4.80;;;17.40;99.90;;;17.43;59.02;100378.00;5124716;27;20040;-85
2023/10/11 07:03:05;;;;;;;14.00;5.70;;;17.40;99.90;;;17.45;59.12;100375.84;5112668;28;20076;-85
2023/10/11 07:05:34;;;;;;;15.88;5.25;;;17.50;99.90;;;17.45;59.27;100373.97;5132155;27;20042;-85
2023/10/11 07:08:04;;;;;;;12.93;4.88;;;17.50;99.90;;;17.47;59.31;100393.41;5064253;28;20130;-85
2023/10/11 07:10:33;;;;;;;12.65;4.85;;;17.50;99.90;;;17.51;59.55;100375.63;5114064;28;20514;-85
2023/10/11 07:13:05;;;;;;;13.88;5.40;;;17.50;99.90;;;17.54;59.53;100368.91;5096756;28;20070;-85
2023/10/11 07:15:42;;;;;;;15.80;5.32;;;17.50;99.90;;;17.53;59.00;100375.38;5099373;28;20048;-85
2023/10/11 07:18:21;;;;;;;16.20;4.72;;;17.60;99.90;;;17.59;58.76;100371.66;5113152;28;20445;-85
2023/10/11 07:20:49;;;;;;;17.65;5.07;;;17.50;99.90;;;17.58;59.10;100363.81;5114701;28;20032;-85
2023/10/11 07:23:21;;;;;;;15.02;5.00;;;17.60;99.90;;;17.56;58.69;100365.94;5113658;28;20046;-85
2023/10/11 07:25:59;;;;;;;12.15;4.85;;;17.70;99.90;;;17.63;59.61;100372.75;5114368;28;20047;-85
2023/10/11 07:28:36;;;;;;;14.48;5.20;;;17.70;99.90;;;17.66;59.43;100371.41;5114942;28;20093;-84
2023/10/11 07:31:13;;;;;;;12.20;5.03;;;17.70;99.90;;;17.70;59.55;100362.53;5128452;28;20071;-85
2023/10/11 07:33:41;;;;;;;13.70;4.85;;;17.70;99.90;;;17.74;59.12;100362.88;5113752;28;20035;-84
2023/10/11 07:36:11;;;;;;;9.23;4.82;;;17.80;99.90;;;17.79;58.91;100356.69;5113862;28;20407;-85
2023/10/11 07:38:43;;;;;;;14.47;5.23;;;17.90;99.90;;;17.87;60.08;100356.19;5097583;28;20100;-86
2023/10/11 07:41:18;;;;;;;16.30;5.10;;;17.90;99.90;;;17.91;59.38;100351.88;5092646;28;20402;-84
2023/10/11 07:43:46;;;;;;;16.65;4.47;;;18.00;99.90;;;17.96;58.90;100350.03;5100690;28;20084;-85
2023/10/11 07:46:14;;;;;;;12.73;5.13;;;18.10;99.90;;;18.04;59.14;100350.59;5112861;27;20133;-85
2023/10/11 07:48:43;;;;;;;13.38;4.95;;;18.20;99.90;;;18.11;59.01;100362.78;5099905;28;20046;-84
2023/10/11 07:51:11;;;;;;;16.67;4.43;;;18.20;99.90;;;18.14;59.99;100367.63;5108549;28;20042;-84
2023/10/11 07:53:43;;;;;;;12.68;4.65;;;18.30;99.90;;;18.17;59.22;100355.50;5117136;28;20048;-85
2023/10/11 07:56:15;;;;;;;14.43;5.05;;;18.30;99.90;;;18.22;58.06;100352.84;5116342;28;20456;-86
2023/10/11 07:58:46;;;;;;;18.48;4.78;;;18.30;99.90;;;18.27;57.62;100366.34;5082444;28;20040;-85
2023/10/11 08:01:25;;;;;;;12.25;4.65;;;18.40;99.90;;;18.30;58.44;100356.91;5100249;28;20574;-84
2023/10/11 08:03:54;;;;;;;11.23;5.05;;;18.50;99.90;;;18.35;57.88;100373.94;5117211;28;20050;-84
2023/10/11 08:06:25;;;;;;;11.27;4.35;;;18.50;99.90;;;18.39;57.86;100375.03;5114908;28;20491;-84
2023/10/11 08:08:59;;;;;;;11.93;4.60;;;18.60;99.90;;;18.45;58.53;100363.19;5118102;28;20047;-84
2023/10/11 08:11:36;;;;;;;11.27;5.00;;;18.60;99.90;;;18.54;57.58;100366.16;5117779;28;20050;-84
2023/10/11 08:14:13;;;;;;;12.55;4.82;;;18.70;99.90;;;18.60;57.74;100369.69;5116469;28;20059;-84
2023/10/11 08:16:41;;;;;;;13.50;4.53;;;18.80;99.90;;;18.64;57.89;100371.59;5116193;28;20112;-84
2023/10/11 08:19:13;;;;;;;18.08;4.93;;;18.80;99.90;;;18.64;57.11;100368.91;5116503;27;20111;-84
2023/10/11 08:21:40;;;;;;;13.30;4.82;;;18.80;99.90;;;18.67;57.16;100381.03;5116465;28;20044;-84
2023/10/11 08:24:15;;;;;;;14.82;5.18;;;18.90;99.90;;;18.68;56.91;100372.69;5082528;28;20048;-84
2023/10/11 08:26:44;;;;;;;15.77;4.97;;;18.90;99.90;;;18.74;57.05;100385.16;5107742;28;20060;-85
2023/10/11 08:29:25;;;;;;;14.07;4.70;;;18.90;99.90;;;18.76;56.74;100380.28;5082299;28;20087;-85
2023/10/11 08:31:52;;;;;;;;;;;19.00;99.90;;;18.81;57.58;100384.88;5113019;28;20047;-84
2023/10/11 08:34:21;;;;;;;13.90;4.85;;;19.00;99.90;;;18.84;57.28;100380.81;5116399;28;20015;-84
2023/10/11 08:36:49;;;;;;;18.48;4.93;;;19.00;99.90;;;18.88;56.89;100388.13;5116388;28;20498;-84
2023/10/11 08:39:21;;;;;;;13.27;5.47;;;19.10;99.90;;;18.92;58.08;100391.91;5117316;28;20051;-84
2023/10/11 08:41:48;;;;;;;13.32;4.53;;;19.10;99.90;;;18.96;57.49;100376.00;5118154;28;20051;-84
2023/10/11 08:44:20;;;;;;;12.63;4.35;;;19.10;99.90;;;19.01;57.46;100387.63;5117526;28;20081;-84
2023/10/11 08:46:51;;;;;;;13.60;4.43;;;19.20;99.90;;;19.05;57.02;100382.50;5117129;28;20051;-84
2023/10/11 08:49:19;;;;;;;11.80;4.82;;;19.20;99.90;;;19.09;57.70;100388.16;5090948;28;20126;-84
2023/10/11 08:51:51;;;;;;;10.85;4.80;;;19.30;99.90;;;19.14;57.93;100390.88;5115492;28;20035;-84
2023/10/11 08:54:25;;;;;;;10.98;4.68;;;19.30;99.90;;;19.16;56.72;100381.41;5108881;28;20036;-84
2023/10/11 08:56:54;;;;;;;11.65;5.20;;;19.30;99.90;;;19.18;57.36;100381.97;5108852;28;20074;-84
2023/10/11 08:59:25;;;;;;;10.75;4.95;;;19.30;99.90;;;19.21;57.59;100380.59;5116054;28;20039;-84
2023/10/11 09:01:59;;;;;;;13.90;5.13;;;19.40;99.90;;;19.20;56.99;100382.50;5112486;28;20043;-84
2023/10/11 09:04:28;;;;;;;11.93;4.93;;;19.40;99.90;;;19.23;57.16;100386.56;5116471;28;20138;-84
2023/10/11 09:06:57;;;;;;;14.95;4.72;;;19.40;99.90;;;19.24;57.56;100375.47;5098792;28;20510;-84
2023/10/11 09:09:36;;;;;;;12.82;4.70;;;19.50;99.90;;;19.28;57.21;100375.75;5114355;28;20456;-84
2023/10/11 09:12:23;;;;;;;10.60;4.57;;;19.50;99.90;;;19.29;57.40;100383.56;5107429;28;20047;-84
2023/10/11 09:14:58;;;;;;;14.85;5.05;;;19.50;99.90;;;19.33;57.74;100386.56;5115811;28;20520;-84
2023/10/11 09:17:28;;;;;;;13.50;5.13;;;19.30;99.90;;;19.40;57.91;100392.47;5103935;28;20047;-84
2023/10/11 09:19:58;;;;;;;14.02;4.90;;;19.60;99.90;;;19.44;58.36;100393.56;5101227;28;20040;-84
2023/10/11 09:22:28;;;;;;;17.08;4.68;;;19.60;99.90;;;19.49;57.41;100393.56;5105898;28;20039;-84
2023/10/11 09:25:21;;;;;;;11.80;4.63;;;19.70;99.90;;;19.54;57.04;100384.63;5096217;28;20051;-84
2023/10/11 09:27:50;;;;;;;14.38;4.97;;;19.80;99.90;;;19.59;58.10;100390.03;5103974;28;20073;-86
2023/10/11 09:30:25;;;;;;;14.52;4.93;;;19.80;99.90;;;19.67;57.79;100380.59;5112745;28;20413;-86
2023/10/11 09:32:53;;;;;;;12.18;4.88;;;19.90;99.90;;;19.70;57.18;100378.13;5099592;28;20047;-87
2023/10/11 09:35:26;;;;;;;12.70;4.60;;;19.90;99.90;;;19.75;57.81;100370.00;5112612;28;20430;-87
2023/10/11 09:37:57;;;;;;;15.30;5.13;;;20.00;99.90;;;19.81;57.87;100378.91;5099617;28;20510;-87
2023/10/11 09:40:28;;;;;;;16.10;5.28;;;20.10;99.90;;;19.84;57.54;100381.09;5116669;28;20414;-87
2023/10/11 09:43:01;;;;;;;11.93;4.47;;;20.10;99.90;;;19.89;58.04;100380.25;5113444;28;20130;-86
2023/10/11 09:45:41;;;;;;;14.35;5.13;;;20.10;99.90;;;19.94;57.06;100374.81;5094275;28;20101;-86
2023/10/11 09:48:17;;;;;;;18.80;5.60;;;20.20;99.90;;;19.95;56.39;100362.91;5107304;28;20487;-84
2023/10/11 09:50:45;;;;;;;13.63;5.05;;;20.20;99.90;;;20.00;56.46;100368.31;5115227;28;20087;-85
2023/10/11 09:53:14;;;;;;;13.25;4.90;;;20.20;99.90;;;20.00;56.53;100381.84;5115620;28;20062;-85
2023/10/11 09:55:50;;;;;;;12.90;4.93;;;20.20;99.90;;;20.01;56.70;100372.66;5116186;28;20545;-86
2023/10/11 09:58:32;;;;;;;11.32;4.60;;;20.20;99.90;;;20.08;56.67;100366.94;5115104;28;20113;-88
2023/10/11 10:01:10;;;;;;;11.13;4.60;;;20.30;99.90;;;20.14;57.29;100376.66;5108639;28;20055;-85
2023/10/11 10:03:45;;;;;;;14.57;4.88;;;20.30;99.90;;;20.19;55.98;100385.56;5115687;27;20149;-85
2023/10/11 10:06:18;;;;;;;17.00;4.47;;;20.40;99.90;;;20.26;56.38;100385.28;5095541;28;20043;-88
2023/10/11 10:09:16;;;;;;;14.45;4.60;;;20.50;99.90;;;20.33;56.84;100383.06;5115255;28;20048;-88
2023/10/11 10:12:20;;;;;;;13.85;4.80;;;20.50;99.90;;;20.44;54.50;100389.25;5108379;28;20036;-87
2023/10/11 10:14:53;;;;;;;10.50;4.65;;;20.70;99.90;;;20.47;54.95;100381.41;5123628;27;20503;-88
2023/10/11 10:17:20;;;;;;;8.65;4.20;;;20.70;99.90;;;20.50;54.97;100390.88;5094683;28;20044;-87
2023/10/11 10:19:48;;;;;;;18.33;4.82;;;20.80;99.90;;;20.52;55.29;100394.13;5113530;28;20040;-87
2023/10/11 10:22:22;;;;;;;15.00;4.90;;;20.80;99.90;;;20.55;55.03;100396.28;5112263;28;20050;-87
2023/10/11 10:24:55;;;;;;;14.38;4.40;;;20.80;99.90;;;20.57;54.89;100400.31;5114051;28;20043;-87
2023/10/11 10:27:41;;;;;;;14.20;4.75;;;20.80;99.90;;;20.53;55.47;100390.31;5107287;28;20043;-87
2023/10/11 10:30:16;;;;;;;11.20;4.50;;;20.80;99.90;;;20.44;54.69;100402.78;5109896;28;20062;-87
2023/10/11 10:33:21;;;;;;;15.30;4.93;;;20.70;99.90;;;20.43;54.97;100391.13;5114955;28;20048;-87
2023/10/11 10:35:49;;;;;;;16.35;4.80;;;20.60;99.90;;;20.45;54.02;100393.59;5114994;28;20498;-87
2023/10/11 10:38:22;;;;;;;11.45;4.07;;;20.60;99.80;;;20.46;54.72;100395.22;5080621;28;20042;-87
2023/10/11 10:41:23;;;;;;;14.00;4.50;;;20.70;99.90;;;20.49;55.15;100384.63;5063524;28;20050;-87
2023/10/11 10:44:05;;;;;;;18.05;5.07;;;20.70;99.90;;;20.53;55.92;100382.19;5126492;27;20048;-87
2023/10/11 10:46:33;;;;;;;15.90;4.97;;;20.70;99.90;;;20.52;54.68;100383.28;5103643;28;20108;-86
2023/10/11 10:49:01;;;;;;;17.65;5.15;;;20.70;99.90;;;20.52;54.44;100384.09;5115879;28;20043;-86
2023/10/11 10:51:35;;;;;;;14.27;4.85;;;20.70;99.90;;;20.57;55.25;100380.53;5098538;28;20065;-85